createdAt,value
2023-02-04T00:01:38.706Z,0.20
2023-02-04T00:04:07.764Z,0.10
2023-02-04T00:06:36.744Z,0.20
2023-02-04T00:09:05.774Z,0.10
2023-02-04T00:11:36.262Z,0.10
2023-02-04T00:14:05.304Z,0.10
2023-02-04T00:16:34.264Z,0.00
2023-02-04T00:19:03.240Z,0.00
2023-02-04T00:21:32.294Z,-0.10
2023-02-04T00:24:01.204Z,-0.10
2023-02-04T00:26:30.153Z,-0.10
2023-02-04T00:29:00.602Z,-0.10
2023-02-04T00:31:29.602Z,-0.10
2023-02-04T00:33:59.943Z,-0.10
2023-02-04T00:36:28.918Z,-0.10
2023-02-04T00:38:57.918Z,-0.10
2023-02-04T00:41:26.871Z,-0.10
2023-02-04T00:43:55.836Z,-0.10
2023-02-04T00:46:26.252Z,-0.10
2023-02-04T00:48:55.204Z,-0.10
2023-02-04T00:51:24.177Z,0.00
2023-02-04T00:53:53.414Z,0.00
2023-02-04T00:56:22.320Z,0.00
2023-02-04T00:58:51.286Z,0.00
2023-02-04T01:01:20.301Z,0.10
2023-02-04T01:03:50.824Z,0.00
2023-02-04T01:06:19.774Z,0.00
2023-02-04T01:08:48.878Z,0.00
2023-02-04T01:11:17.830Z,0.10
2023-02-04T01:13:46.878Z,0.00
2023-02-04T01:16:16.040Z,0.10
2023-02-04T01:18:45.015Z,0.10
2023-02-04T01:21:15.529Z,0.10
2023-02-04T01:23:44.569Z,-0.20
2023-02-04T01:26:13.563Z,0.10
2023-02-04T01:28:42.481Z,0.10
2023-02-04T01:31:11.436Z,0.10
2023-02-04T01:33:40.542Z,0.00
2023-02-04T01:36:09.805Z,0.00
2023-02-04T01:38:40.254Z,0.00
2023-02-04T01:41:09.163Z,0.00
2023-02-04T01:43:38.193Z,0.00
2023-02-04T01:46:07.719Z,0.00
2023-02-04T01:48:36.916Z,0.00
2023-02-04T01:51:09.113Z,-0.10
2023-02-04T01:53:40.138Z,0.00
2023-02-04T01:56:18.695Z,0.00
2023-02-04T01:58:48.483Z,0.00
2023-02-04T02:01:33.848Z,0.00
2023-02-04T02:04:03.210Z,0.00
2023-02-04T02:06:32.270Z,0.00
2023-02-04T02:09:03.518Z,0.00
2023-02-04T02:11:35.783Z,0.00
2023-02-04T02:14:05.819Z,0.00
2023-02-04T02:16:35.562Z,0.00
2023-02-04T02:19:05.793Z,-0.10
2023-02-04T02:21:40.063Z,-0.10
2023-02-04T02:24:27.701Z,-0.10
2023-02-04T02:27:01.433Z,-0.20
2023-02-04T02:29:30.845Z,-0.20
2023-02-04T02:32:00.564Z,-0.20
2023-02-04T02:34:30.942Z,-0.20
2023-02-04T02:37:00.891Z,-0.20
2023-02-04T02:39:31.460Z,-0.20
2023-02-04T02:42:00.918Z,-0.20
2023-02-04T02:44:30.864Z,-0.50
2023-02-04T02:47:00.515Z,-0.20
2023-02-04T02:49:32.404Z,-0.20
2023-02-04T02:52:01.516Z,-0.30
2023-02-04T02:54:34.448Z,-0.20
2023-02-04T02:57:03.628Z,-0.20
2023-02-04T02:59:33.684Z,-0.20
2023-02-04T03:02:06.643Z,-0.20
2023-02-04T03:04:40.311Z,-0.30
2023-02-04T03:07:10.063Z,-0.20
2023-02-04T03:09:40.911Z,-0.20
2023-02-04T03:12:09.968Z,-0.20
2023-02-04T03:14:39.582Z,-0.30
2023-02-04T03:17:10.493Z,-0.30
2023-02-04T03:19:40.288Z,-0.30
2023-02-04T03:22:09.756Z,-0.30
2023-02-04T03:24:41.510Z,-0.40
2023-02-04T03:27:10.429Z,-0.40
2023-02-04T03:29:44.947Z,-0.50
2023-02-04T03:32:14.275Z,-0.60
2023-02-04T03:34:43.200Z,-0.70
2023-02-04T03:37:12.184Z,-0.60
2023-02-04T03:39:42.655Z,-0.70
2023-02-04T03:42:11.614Z,-0.70
2023-02-04T03:44:40.570Z,-0.90
2023-02-04T03:47:09.768Z,-0.80
2023-02-04T03:49:38.717Z,-1.00
2023-02-04T03:52:07.919Z,-1.00
2023-02-04T03:54:36.808Z,-1.10
2023-02-04T03:57:07.509Z,-1.10
2023-02-04T03:59:36.456Z,-1.30
2023-02-04T04:02:05.490Z,-1.40
2023-02-04T04:04:34.394Z,-1.50
2023-02-04T04:07:03.392Z,-1.40
2023-02-04T04:09:32.280Z,-1.80
2023-02-04T04:12:01.330Z,-1.90
2023-02-04T04:14:31.793Z,-2.00
2023-02-04T04:17:00.758Z,-2.20
2023-02-04T04:19:32.066Z,-2.30
2023-02-04T04:22:01.139Z,-2.40
2023-02-04T04:24:30.100Z,-2.60
2023-02-04T04:26:59.233Z,-2.90
2023-02-04T04:29:28.153Z,-2.60
2023-02-04T04:31:58.727Z,-2.70
2023-02-04T04:34:27.685Z,-2.80
2023-02-04T04:36:56.865Z,-2.80
2023-02-04T04:39:26.604Z,-2.80
2023-02-04T04:41:55.749Z,-2.90
2023-02-04T04:44:24.595Z,-3.30
2023-02-04T04:46:53.695Z,-3.30
2023-02-04T04:49:24.219Z,-3.00
2023-02-04T04:51:53.315Z,-3.10
2023-02-04T04:54:22.181Z,-3.20
2023-02-04T04:56:51.154Z,-3.10
2023-02-04T04:59:20.037Z,-2.90
2023-02-04T05:01:49.042Z,-3.20
2023-02-04T05:04:17.934Z,-2.70
2023-02-04T05:06:48.503Z,-3.00
2023-02-04T05:09:17.747Z,-2.40
2023-02-04T05:11:48.204Z,-2.20
2023-02-04T05:14:17.173Z,-2.20
2023-02-04T05:16:46.195Z,-2.20
2023-02-04T05:19:15.334Z,-2.10
2023-02-04T05:21:44.249Z,-2.10
2023-02-04T05:24:14.578Z,-2.40
2023-02-04T05:26:43.881Z,-2.00
2023-02-04T05:29:12.860Z,-2.00
2023-02-04T05:31:41.874Z,-2.00
2023-02-04T05:34:10.835Z,-1.90
2023-02-04T05:36:39.763Z,-1.90
2023-02-04T05:39:08.890Z,-1.90
2023-02-04T05:41:39.930Z,-1.80
2023-02-04T05:44:09.034Z,-1.80
2023-02-04T05:46:38.784Z,-1.80
2023-02-04T05:49:08.530Z,-1.80
2023-02-04T05:51:37.517Z,-1.80
2023-02-04T05:54:06.621Z,-1.80
2023-02-04T05:56:35.556Z,-1.60
2023-02-04T05:59:06.034Z,-1.80
2023-02-04T06:01:35.015Z,-1.80
2023-02-04T06:04:04.223Z,-1.80
2023-02-04T06:06:33.195Z,-1.80
2023-02-04T06:09:02.683Z,-1.80
2023-02-04T06:11:31.663Z,-1.90
2023-02-04T06:14:01.016Z,-1.90
2023-02-04T06:16:31.539Z,-1.90
2023-02-04T06:19:00.625Z,-1.90
2023-02-04T06:21:30.180Z,-2.20
2023-02-04T06:23:59.290Z,-2.40
2023-02-04T06:26:28.337Z,-2.40
2023-02-04T06:28:57.402Z,-2.40
2023-02-04T06:31:26.518Z,-2.70
2023-02-04T06:33:57.126Z,-2.50
2023-02-04T06:36:26.038Z,-2.50
2023-02-04T06:38:55.188Z,-2.50
2023-02-04T06:41:24.067Z,-2.60
2023-02-04T06:43:53.105Z,-2.50
2023-02-04T06:46:22.113Z,-2.30
2023-02-04T06:48:51.422Z,-2.30
2023-02-04T06:51:21.826Z,-2.30
2023-02-04T06:53:50.848Z,-2.30
2023-02-04T06:56:19.794Z,-2.20
2023-02-04T06:58:48.852Z,-2.00
2023-02-04T07:01:17.833Z,-1.90
2023-02-04T07:03:47.210Z,-1.80
2023-02-04T07:06:16.145Z,-1.70
2023-02-04T07:08:47.817Z,-1.60
2023-02-04T07:11:16.684Z,-1.50
2023-02-04T07:13:45.903Z,-1.40
2023-02-04T07:16:14.821Z,-1.40
2023-02-04T07:18:44.003Z,-1.30
2023-02-04T07:21:12.979Z,-1.20
2023-02-04T07:23:42.162Z,-1.10
2023-02-04T07:26:12.482Z,-1.00
2023-02-04T07:28:42.733Z,-1.00
2023-02-04T07:31:11.804Z,-1.00
2023-02-04T07:33:40.973Z,-0.90
2023-02-04T07:36:10.097Z,-0.70
2023-02-04T07:38:39.296Z,-0.70
2023-02-04T07:41:08.261Z,-0.60
2023-02-04T07:43:38.838Z,-0.60
2023-02-04T07:46:07.953Z,-0.70
2023-02-04T07:48:36.908Z,-0.60
2023-02-04T07:51:05.966Z,-0.60
2023-02-04T07:53:34.882Z,-0.60
2023-02-04T07:56:03.979Z,-0.50
2023-02-04T07:58:32.974Z,-0.60
2023-02-04T08:01:03.436Z,-0.70
2023-02-04T08:03:33.060Z,-0.80
2023-02-04T08:06:02.091Z,-0.80
2023-02-04T08:08:31.108Z,-0.90
2023-02-04T08:11:00.182Z,-0.90
2023-02-04T08:13:29.243Z,-0.80
2023-02-04T08:15:58.351Z,-0.70
2023-02-04T08:18:29.232Z,-0.90
2023-02-04T08:20:59.506Z,-0.90
2023-02-04T08:23:28.609Z,-0.90
2023-02-04T08:25:57.675Z,-0.90
2023-02-04T08:28:26.750Z,-0.90
2023-02-04T08:30:56.551Z,-0.90
2023-02-04T08:33:25.595Z,-0.90
2023-02-04T08:35:56.118Z,-0.80
2023-02-04T08:38:25.131Z,-0.80
2023-02-04T08:40:54.195Z,-0.80
2023-02-04T08:43:23.154Z,-0.90
2023-02-04T08:45:52.163Z,-0.90
2023-02-04T08:48:21.090Z,-0.80
2023-02-04T08:50:50.124Z,-0.90
2023-02-04T08:53:20.560Z,-0.80
2023-02-04T08:55:49.566Z,-0.70
2023-02-04T08:58:18.507Z,-0.70
2023-02-04T09:00:47.507Z,-1.00
2023-02-04T09:03:16.485Z,-0.40
2023-02-04T09:05:45.511Z,-0.40
2023-02-04T09:08:15.968Z,-0.30
2023-02-04T09:10:46.450Z,-0.30
2023-02-04T09:13:15.446Z,-0.20
2023-02-04T09:15:44.453Z,-0.20
2023-02-04T09:18:16.811Z,-0.30
2023-02-04T09:20:45.867Z,-0.20
2023-02-04T09:23:15.217Z,-0.10
2023-02-04T09:25:47.389Z,-0.20
2023-02-04T09:28:17.536Z,-0.10
2023-02-04T09:30:48.165Z,0.00
2023-02-04T09:33:18.155Z,0.00
2023-02-04T09:35:47.508Z,0.10
2023-02-04T09:38:16.412Z,0.40
2023-02-04T09:40:49.317Z,0.30
2023-02-04T09:43:21.869Z,0.20
2023-02-04T09:45:51.221Z,0.10
2023-02-04T09:48:20.537Z,0.00
2023-02-04T09:50:50.190Z,-0.10
2023-02-04T09:53:24.714Z,-0.10
2023-02-04T09:55:55.193Z,0.00
2023-02-04T09:58:26.605Z,0.10
2023-02-04T10:01:01.632Z,0.00
2023-02-04T10:03:30.779Z,0.20
2023-02-04T10:05:59.977Z,0.20
2023-02-04T10:08:31.341Z,0.20
2023-02-04T10:11:01.807Z,0.00
2023-02-04T10:13:36.387Z,-0.10
2023-02-04T10:16:11.196Z,0.10
2023-02-04T10:18:40.574Z,0.00
2023-02-04T10:21:16.712Z,-0.10
2023-02-04T10:23:48.243Z,0.00
2023-02-04T10:26:19.679Z,0.20
2023-02-04T10:28:49.970Z,0.50
2023-02-04T10:31:38.056Z,0.50
2023-02-04T10:34:09.206Z,0.50
2023-02-04T10:36:38.604Z,0.40
2023-02-04T10:39:12.295Z,0.40
2023-02-04T10:41:49.481Z,0.50
2023-02-04T10:44:20.418Z,0.60
2023-02-04T10:46:49.901Z,0.70
2023-02-04T10:49:24.100Z,0.40
2023-02-04T10:51:54.316Z,0.50
2023-02-04T10:54:32.392Z,0.60
2023-02-04T10:57:10.467Z,0.80
2023-02-04T10:59:39.570Z,1.00
2023-02-04T11:02:34.774Z,1.10
2023-02-04T11:05:04.066Z,1.00
2023-02-04T11:07:33.428Z,1.20
2023-02-04T11:10:02.413Z,1.20
2023-02-04T11:12:43.849Z,1.00
2023-02-04T11:15:46.988Z,0.90
2023-02-04T11:18:30.909Z,0.70
2023-02-04T11:21:01.102Z,0.90
2023-02-04T11:23:36.598Z,1.00
2023-02-04T11:26:09.295Z,1.10
2023-02-04T11:28:58.764Z,1.10
2023-02-04T11:31:43.674Z,1.10
2023-02-04T11:34:27.137Z,0.90
2023-02-04T11:37:15.960Z,1.00
2023-02-04T11:39:46.883Z,1.00
2023-02-04T11:42:23.805Z,0.80
2023-02-04T11:45:00.767Z,1.00
2023-02-04T11:47:37.092Z,1.10
2023-02-04T11:50:19.124Z,0.80
2023-02-04T11:52:48.209Z,0.50
2023-02-04T11:55:17.354Z,0.20
2023-02-04T11:57:47.342Z,0.10
2023-02-04T12:00:20.675Z,0.10
2023-02-04T12:02:51.644Z,0.10
2023-02-04T12:05:21.900Z,0.20
2023-02-04T12:07:51.366Z,0.20
2023-02-04T12:10:27.890Z,0.30
2023-02-04T12:13:00.419Z,0.40
2023-02-04T12:15:36.988Z,0.50
2023-02-04T12:18:08.833Z,0.60
2023-02-04T12:20:38.548Z,0.50
2023-02-04T12:23:09.120Z,0.70
2023-02-04T12:25:38.262Z,0.60
2023-02-04T12:28:07.441Z,0.60
2023-02-04T12:30:38.218Z,0.70
2023-02-04T12:33:07.458Z,0.80
2023-02-04T12:35:36.966Z,0.80
2023-02-04T12:38:06.620Z,0.90
2023-02-04T12:40:35.883Z,0.80
2023-02-04T12:43:04.926Z,0.90
2023-02-04T12:45:34.658Z,1.10
2023-02-04T12:48:05.379Z,1.10
2023-02-04T12:50:34.270Z,0.90
2023-02-04T12:53:03.157Z,0.70
2023-02-04T12:55:32.388Z,0.70
2023-02-04T12:58:01.473Z,0.70
2023-02-04T13:00:32.829Z,0.70
2023-02-04T13:03:01.919Z,0.70
2023-02-04T13:05:32.997Z,0.60
2023-02-04T13:08:02.246Z,0.50
2023-02-04T13:10:31.235Z,0.60
2023-02-04T13:13:01.954Z,0.60
2023-02-04T13:15:32.501Z,0.60
2023-02-04T13:18:01.749Z,0.50
2023-02-04T13:20:32.363Z,0.40
2023-02-04T13:23:01.309Z,0.30
2023-02-04T13:25:30.397Z,0.20
2023-02-04T13:27:59.314Z,0.00
2023-02-04T13:30:30.064Z,0.10
2023-02-04T13:32:59.890Z,0.10
2023-02-04T13:35:28.769Z,0.00
2023-02-04T13:37:59.177Z,0.00
2023-02-04T13:40:28.379Z,-0.10
2023-02-04T13:42:57.232Z,-0.20
2023-02-04T13:45:26.161Z,-0.30
2023-02-04T13:47:55.051Z,-0.30
2023-02-04T13:50:25.732Z,-0.40
2023-02-04T13:52:55.567Z,-0.50
2023-02-04T13:55:25.940Z,-0.50
2023-02-04T13:57:54.812Z,-0.40
2023-02-04T14:00:24.096Z,-0.40
2023-02-04T14:02:52.899Z,-0.40
2023-02-04T14:05:21.879Z,-0.40
2023-02-04T14:07:50.672Z,-0.50
2023-02-04T14:10:19.885Z,-0.50
2023-02-04T14:12:50.646Z,-0.50
2023-02-04T14:15:19.847Z,-0.50
2023-02-04T14:17:49.219Z,-0.60
2023-02-04T14:20:19.039Z,-0.60
2023-02-04T14:22:48.154Z,-0.60
2023-02-04T14:25:17.565Z,-0.70
2023-02-04T14:27:46.707Z,-0.70
2023-02-04T14:30:22.640Z,-0.70
2023-02-04T14:32:51.769Z,-0.70
2023-02-04T14:35:21.586Z,-0.70
2023-02-04T14:37:51.059Z,-0.70
2023-02-04T14:40:21.560Z,-0.70
2023-02-04T14:42:50.450Z,-0.70
2023-02-04T14:45:21.177Z,-0.70
2023-02-04T14:47:52.146Z,-0.80
2023-02-04T14:50:27.418Z,-0.80
2023-02-04T14:52:57.401Z,-0.80
2023-02-04T14:55:28.611Z,-0.80
2023-02-04T14:57:57.719Z,-0.80
2023-02-04T15:00:28.524Z,-0.80
2023-02-04T15:02:58.139Z,-0.80
2023-02-04T15:05:27.098Z,-0.80
2023-02-04T15:07:55.964Z,-0.80
2023-02-04T15:10:25.320Z,-0.90
2023-02-04T15:12:55.551Z,-0.90
2023-02-04T15:15:24.797Z,-1.00
2023-02-04T15:17:55.411Z,-1.00
2023-02-04T15:20:25.571Z,-1.00
2023-02-04T15:22:56.634Z,-0.90
2023-02-04T15:25:25.913Z,-0.90
2023-02-04T15:27:55.351Z,-1.00
2023-02-04T15:30:24.896Z,-1.10
2023-02-04T15:32:55.712Z,-1.20
2023-02-04T15:35:24.821Z,-1.20
2023-02-04T15:37:53.739Z,-1.40
2023-02-04T15:40:24.054Z,-1.50
2023-02-04T15:42:53.583Z,-1.40
2023-02-04T15:45:22.552Z,-1.30
2023-02-04T15:47:51.798Z,-1.20
2023-02-04T15:50:22.399Z,-1.20
2023-02-04T15:52:51.643Z,-1.20
2023-02-04T15:55:21.151Z,-1.30
2023-02-04T15:57:50.200Z,-1.20
2023-02-04T16:00:20.654Z,-1.30
2023-02-04T16:02:49.798Z,-1.20
2023-02-04T16:05:19.092Z,-1.20
2023-02-04T16:07:49.903Z,-1.20
2023-02-04T16:10:19.762Z,-1.20
2023-02-04T16:12:49.532Z,-1.10
2023-02-04T16:15:19.014Z,-1.20
2023-02-04T16:17:48.581Z,-1.10
2023-02-04T16:20:18.266Z,-1.10
2023-02-04T16:22:49.392Z,-1.10
2023-02-04T16:25:19.095Z,-1.10
2023-02-04T16:27:48.289Z,-1.20
2023-02-04T16:30:17.866Z,-1.20
2023-02-04T16:32:46.928Z,-1.20
2023-02-04T16:35:15.983Z,-1.00
2023-02-04T16:37:45.505Z,-1.00
2023-02-04T16:40:18.237Z,-0.90
2023-02-04T16:42:47.932Z,-0.90
2023-02-04T16:45:17.419Z,-1.00
2023-02-04T16:47:47.178Z,-0.90
2023-02-04T16:50:16.344Z,-0.80
2023-02-04T16:52:46.037Z,-0.90
2023-02-04T16:55:16.895Z,-0.90
2023-02-04T16:57:45.849Z,-1.00
2023-02-04T17:00:16.368Z,-1.00
2023-02-04T17:02:45.488Z,-1.30
2023-02-04T17:05:14.686Z,-1.00
2023-02-04T17:07:43.948Z,-1.10
2023-02-04T17:10:12.984Z,-1.20
2023-02-04T17:12:43.459Z,-1.30
2023-02-04T17:15:14.084Z,-1.50
2023-02-04T17:17:43.205Z,-1.60
2023-02-04T17:20:13.219Z,-1.70
2023-02-04T17:22:42.650Z,-1.90
2023-02-04T17:25:11.778Z,-2.10
2023-02-04T17:27:40.794Z,-2.10
2023-02-04T17:30:13.444Z,-2.00
2023-02-04T17:32:45.608Z,-1.90
2023-02-04T17:35:15.184Z,-1.80
2023-02-04T17:37:44.233Z,-1.70
2023-02-04T17:40:14.281Z,-1.60
2023-02-04T17:42:44.708Z,-1.60
2023-02-04T17:45:15.304Z,-1.50
2023-02-04T17:47:45.278Z,-1.50
2023-02-04T17:50:15.259Z,-1.40
2023-02-04T17:52:45.609Z,-1.40
2023-02-04T17:55:22.711Z,-1.60
2023-02-04T17:57:52.825Z,-1.70
2023-02-04T18:00:25.990Z,-1.40
2023-02-04T18:02:55.829Z,-1.80
2023-02-04T18:05:26.984Z,-1.50
2023-02-04T18:08:02.060Z,-1.50
2023-02-04T18:10:34.286Z,-1.50
2023-02-04T18:13:14.252Z,-1.50
2023-02-04T18:15:47.350Z,-1.50
2023-02-04T18:18:27.821Z,-1.60
2023-02-04T18:21:02.806Z,-1.70
2023-02-04T18:23:34.456Z,-1.40
2023-02-04T18:26:14.529Z,-1.40
2023-02-04T18:28:47.924Z,-1.40
2023-02-04T18:31:34.473Z,-1.40
2023-02-04T18:34:11.788Z,-1.30
2023-02-04T18:36:41.849Z,-1.40
2023-02-04T18:39:17.849Z,-1.40
2023-02-04T18:41:50.571Z,-1.40
2023-02-04T18:44:30.634Z,-1.80
2023-02-04T18:47:03.640Z,-1.40
2023-02-04T18:49:37.852Z,-1.30
2023-02-04T18:52:20.468Z,-1.50
2023-02-04T18:54:56.956Z,-1.60
2023-02-04T18:57:34.445Z,-1.30
2023-02-04T19:00:33.018Z,-1.30
2023-02-04T19:03:20.203Z,-1.30
2023-02-04T19:05:51.802Z,-1.20
2023-02-04T19:08:29.807Z,-1.40
2023-02-04T19:11:00.143Z,-1.40
2023-02-04T19:13:40.351Z,-1.40
2023-02-04T19:16:23.322Z,-1.70
2023-02-04T19:18:57.837Z,-1.70
2023-02-04T19:21:30.365Z,-1.50
2023-02-04T19:24:06.541Z,-1.50
2023-02-04T19:26:38.091Z,-1.70
2023-02-04T19:29:39.768Z,-1.30
2023-02-04T19:32:52.785Z,-1.40
2023-02-04T19:35:25.709Z,-1.40
2023-02-04T19:37:56.785Z,-1.50
2023-02-04T19:40:34.021Z,-1.50
2023-02-04T19:43:22.897Z,-1.40
2023-02-04T19:45:54.576Z,-1.20
2023-02-04T19:48:29.233Z,-1.40
2023-02-04T19:51:00.611Z,-1.40
2023-02-04T19:53:32.114Z,-1.40
2023-02-04T19:56:01.660Z,-1.60
2023-02-04T19:58:38.865Z,-1.50
2023-02-04T20:01:11.993Z,-1.40
2023-02-04T20:03:45.358Z,-1.30
2023-02-04T20:06:30.599Z,-1.50
2023-02-04T20:09:02.339Z,-1.30
2023-02-04T20:11:43.768Z,-1.20
2023-02-04T20:14:28.196Z,-1.10
2023-02-04T20:16:59.194Z,-1.10
2023-02-04T20:19:35.335Z,-1.10
2023-02-04T20:22:34.990Z,-1.10
2023-02-04T20:25:50.400Z,-0.90
2023-02-04T20:28:43.688Z,-0.90
2023-02-04T20:31:29.188Z,-0.90
2023-02-04T20:34:01.099Z,-0.90
2023-02-04T20:36:36.631Z,-1.00
2023-02-04T20:39:28.428Z,-1.10
2023-02-04T20:42:21.319Z,-1.00
2023-02-04T20:44:51.044Z,-1.10
2023-02-04T20:47:23.472Z,-1.00
2023-02-04T20:49:56.597Z,-1.00
2023-02-04T20:53:03.117Z,-1.00
2023-02-04T20:55:37.119Z,-0.90
2023-02-04T20:58:18.268Z,-0.90
2023-02-04T21:00:52.857Z,-0.80
2023-02-04T21:03:26.024Z,-0.80
2023-02-04T21:05:57.678Z,-0.80
2023-02-04T21:08:30.195Z,-0.80
2023-02-04T21:11:01.668Z,-0.80
2023-02-04T21:13:33.154Z,-0.80
2023-02-04T21:16:02.563Z,-0.80
2023-02-04T21:18:35.769Z,-1.00
2023-02-04T21:21:07.928Z,-1.30
2023-02-04T21:23:38.662Z,-1.00
2023-02-04T21:26:09.525Z,-1.00
2023-02-04T21:28:39.057Z,-1.00
2023-02-04T21:31:08.255Z,-0.80
2023-02-04T21:33:43.108Z,-1.00
2023-02-04T21:36:12.741Z,-1.30
2023-02-04T21:38:42.538Z,-1.00
2023-02-04T21:41:14.953Z,-0.90
2023-02-04T21:43:44.568Z,-0.90
2023-02-04T21:46:14.333Z,-0.90
2023-02-04T21:48:43.877Z,-0.90
2023-02-04T21:51:13.823Z,-0.90
2023-02-04T21:53:44.537Z,-0.90
2023-02-04T21:56:15.097Z,-0.80
2023-02-04T21:58:44.128Z,-0.80
2023-02-04T22:01:13.085Z,-0.80
2023-02-04T22:03:42.065Z,-0.80
2023-02-04T22:06:11.099Z,-0.80
2023-02-04T22:08:39.987Z,-0.90
2023-02-04T22:11:08.965Z,-1.00
2023-02-04T22:13:56.851Z,-1.00
2023-02-04T22:16:27.340Z,-0.90
2023-02-04T22:18:56.370Z,-0.90
2023-02-04T22:21:25.369Z,-0.90
2023-02-04T22:23:54.303Z,-0.90
2023-02-04T22:26:23.314Z,-1.00
2023-02-04T22:28:53.664Z,-0.90
2023-02-04T22:31:22.653Z,-0.90
2023-02-04T22:33:51.861Z,-0.90
2023-02-04T22:36:20.816Z,-1.00
2023-02-04T22:38:50.405Z,-1.00
2023-02-04T22:41:19.533Z,-1.00
2023-02-04T22:43:48.485Z,-1.00
2023-02-04T22:46:18.982Z,-1.10
2023-02-04T22:48:47.878Z,-1.10
2023-02-04T22:51:16.793Z,-1.40
2023-02-04T22:53:45.753Z,-1.10
2023-02-04T22:56:14.756Z,-1.20
2023-02-04T22:58:45.590Z,-1.10
2023-02-04T23:01:14.881Z,-1.50
2023-02-04T23:03:45.567Z,-1.30
2023-02-04T23:06:16.096Z,-1.00
2023-02-04T23:08:45.136Z,-1.00
2023-02-04T23:11:14.163Z,-1.00
2023-02-04T23:13:43.275Z,-1.00
2023-02-04T23:16:12.348Z,-1.00
2023-02-04T23:18:41.366Z,-1.00
2023-02-04T23:21:11.859Z,-1.00
2023-02-04T23:23:41.092Z,-0.90
2023-02-04T23:26:10.372Z,-0.90
2023-02-04T23:28:39.334Z,-1.40
2023-02-04T23:31:08.354Z,-1.00
2023-02-04T23:33:37.302Z,-1.00
2023-02-04T23:36:06.911Z,-0.80
2023-02-04T23:38:37.275Z,-0.90
2023-02-04T23:41:06.755Z,-1.10
2023-02-04T23:43:35.654Z,-1.00
2023-02-04T23:46:04.804Z,-1.40
2023-02-04T23:48:33.681Z,-1.10
2023-02-04T23:51:02.623Z,-1.00
2023-02-04T23:53:31.636Z,-1.00
2023-02-04T23:56:02.045Z,-1.40
2023-02-04T23:58:31.024Z,-1.20
